sensor_id;sensor_type;location;lat;lon;timestamp;temperature;humidity
19999;DHT22;10160;50.926;4.374;2023-04-09T00:00:23;9.60;99.90
19999;DHT22;10160;50.926;4.374;2023-04-09T00:02:48;9.60;99.90
19999;DHT22;10160;50.926;4.374;2023-04-09T00:05:14;9.50;99.90
19999;DHT22;10160;50.926;4.374;2023-04-09T00:07:40;9.50;99.90
19999;DHT22;10160;50.926;4.374;2023-04-09T00:10:06;9.50;99.90
19999;DHT22;10160;50.926;4.374;2023-04-09T00:12:32;9.50;99.90
19999;DHT22;10160;50.926;4.374;2023-04-09T00:14:57;9.60;99.90
19999;DHT22;10160;50.926;4.374;2023-04-09T00:17:23;9.80;99.90
19999;DHT22;10160;50.926;4.374;2023-04-09T00:19:49;9.40;99.90
19999;DHT22;10160;50.926;4.374;2023-04-09T00:22:14;9.30;99.90
19999;DHT22;10160;50.926;4.374;2023-04-09T00:24:40;9.30;99.90
19999;DHT22;10160;50.926;4.374;2023-04-09T00:27:06;9.50;99.90
19999;DHT22;10160;50.926;4.374;2023-04-09T00:29:31;9.50;99.90
19999;DHT22;10160;50.926;4.374;2023-04-09T00:31:57;9.50;99.90
19999;DHT22;10160;50.926;4.374;2023-04-09T00:34:23;9.50;99.90
19999;DHT22;10160;50.926;4.374;2023-04-09T00:36:48;9.50;99.90
19999;DHT22;10160;50.926;4.374;2023-04-09T00:39:14;9.60;99.90
19999;DHT22;10160;50.926;4.374;2023-04-09T00:41:40;9.70;99.90
19999;DHT22;10160;50.926;4.374;2023-04-09T00:44:06;9.60;99.90
19999;DHT22;10160;50.926;4.374;2023-04-09T00:46:31;9.70;99.90
19999;DHT22;10160;50.926;4.374;2023-04-09T00:48:58;9.60;99.90
19999;DHT22;10160;50.926;4.374;2023-04-09T00:51:24;9.60;99.90
19999;DHT22;10160;50.926;4.374;2023-04-09T00:53:51;9.70;99.90
19999;DHT22;10160;50.926;4.374;2023-04-09T00:56:17;9.80;99.90
19999;DHT22;10160;50.926;4.374;2023-04-09T00:58:44;9.70;99.90
19999;DHT22;10160;50.926;4.374;2023-04-09T01:01:09;9.70;99.90
19999;DHT22;10160;50.926;4.374;2023-04-09T01:03:35;9.60;99.90
19999;DHT22;10160;50.926;4.374;2023-04-09T01:06:06;9.40;99.90
19999;DHT22;10160;50.926;4.374;2023-04-09T01:08:45;9.40;99.90
19999;DHT22;10160;50.926;4.374;2023-04-09T01:14:36;9.20;99.90
19999;DHT22;10160;50.926;4.374;2023-04-09T01:17:14;9.20;99.90
19999;DHT22;10160;50.926;4.374;2023-04-09T01:20:11;9.30;99.90
19999;DHT22;10160;50.926;4.374;2023-04-09T01:25:57;9.10;99.90
19999;DHT22;10160;50.926;4.374;2023-04-09T01:28:33;8.80;99.90
19999;DHT22;10160;50.926;4.374;2023-04-09T01:31:03;8.80;99.90
19999;DHT22;10160;50.926;4.374;2023-04-09T01:33:30;8.90;99.90
19999;DHT22;10160;50.926;4.374;2023-04-09T01:35:58;8.80;99.90
19999;DHT22;10160;50.926;4.374;2023-04-09T01:38:24;8.90;99.90
19999;DHT22;10160;50.926;4.374;2023-04-09T01:40:51;9.00;99.90
19999;DHT22;10160;50.926;4.374;2023-04-09T01:43:18;9.10;99.90
19999;DHT22;10160;50.926;4.374;2023-04-09T01:45:44;9.20;99.90
19999;DHT22;10160;50.926;4.374;2023-04-09T01:48:12;9.00;99.90
19999;DHT22;10160;50.926;4.374;2023-04-09T01:50:39;9.00;99.90
19999;DHT22;10160;50.926;4.374;2023-04-09T01:53:05;9.10;99.90
19999;DHT22;10160;50.926;4.374;2023-04-09T01:55:31;9.20;99.90
19999;DHT22;10160;50.926;4.374;2023-04-09T01:57:56;9.20;99.90
19999;DHT22;10160;50.926;4.374;2023-04-09T02:00:24;9.20;99.90
19999;DHT22;10160;50.926;4.374;2023-04-09T02:05:44;9.30;99.90
19999;DHT22;10160;50.926;4.374;2023-04-09T02:08:12;9.10;99.90
19999;DHT22;10160;50.926;4.374;2023-04-09T02:10:41;8.80;99.90
19999;DHT22;10160;50.926;4.374;2023-04-09T02:13:12;8.50;99.90
19999;DHT22;10160;50.926;4.374;2023-04-09T02:15:42;8.20;99.90
19999;DHT22;10160;50.926;4.374;2023-04-09T02:18:23;8.10;99.90
19999;DHT22;10160;50.926;4.374;2023-04-09T02:20:49;7.80;99.90
19999;DHT22;10160;50.926;4.374;2023-04-09T02:23:15;7.80;99.90
19999;DHT22;10160;50.926;4.374;2023-04-09T02:25:42;7.70;99.90
19999;DHT22;10160;50.926;4.374;2023-04-09T02:28:08;7.60;99.90
19999;DHT22;10160;50.926;4.374;2023-04-09T02:30:33;7.50;99.90
19999;DHT22;10160;50.926;4.374;2023-04-09T02:32:59;7.50;99.90
19999;DHT22;10160;50.926;4.374;2023-04-09T02:35:25;7.40;99.90
19999;DHT22;10160;50.926;4.374;2023-04-09T02:37:51;7.20;99.90
19999;DHT22;10160;50.926;4.374;2023-04-09T02:40:16;7.20;99.90
19999;DHT22;10160;50.926;4.374;2023-04-09T02:42:42;7.40;99.90
19999;DHT22;10160;50.926;4.374;2023-04-09T02:45:08;7.70;99.90
19999;DHT22;10160;50.926;4.374;2023-04-09T02:47:34;7.90;99.90
19999;DHT22;10160;50.926;4.374;2023-04-09T02:49:59;8.00;99.90
19999;DHT22;10160;50.926;4.374;2023-04-09T02:52:25;8.10;99.90
19999;DHT22;10160;50.926;4.374;2023-04-09T02:54:53;8.30;99.90
19999;DHT22;10160;50.926;4.374;2023-04-09T02:57:20;8.40;99.90
19999;DHT22;10160;50.926;4.374;2023-04-09T02:59:46;8.30;99.90
19999;DHT22;10160;50.926;4.374;2023-04-09T03:02:12;8.40;99.90
19999;DHT22;10160;50.926;4.374;2023-04-09T03:04:38;8.40;99.90
19999;DHT22;10160;50.926;4.374;2023-04-09T03:07:03;8.30;99.90
19999;DHT22;10160;50.926;4.374;2023-04-09T03:09:29;8.40;99.90
19999;DHT22;10160;50.926;4.374;2023-04-09T03:11:55;8.40;99.90
19999;DHT22;10160;50.926;4.374;2023-04-09T03:14:24;8.60;99.90
19999;DHT22;10160;50.926;4.374;2023-04-09T03:16:49;8.70;99.90
19999;DHT22;10160;50.926;4.374;2023-04-09T03:19:15;8.60;99.90
19999;DHT22;10160;50.926;4.374;2023-04-09T03:21:41;8.40;99.90
19999;DHT22;10160;50.926;4.374;2023-04-09T03:24:07;8.30;99.90
19999;DHT22;10160;50.926;4.374;2023-04-09T03:26:32;8.20;99.90
19999;DHT22;10160;50.926;4.374;2023-04-09T03:29:04;8.30;99.90
19999;DHT22;10160;50.926;4.374;2023-04-09T03:31:31;8.30;99.90
19999;DHT22;10160;50.926;4.374;2023-04-09T03:33:56;8.30;99.90
19999;DHT22;10160;50.926;4.374;2023-04-09T03:36:22;8.30;99.90
19999;DHT22;10160;50.926;4.374;2023-04-09T03:38:48;8.20;99.90
19999;DHT22;10160;50.926;4.374;2023-04-09T03:41:13;8.20;99.90
19999;DHT22;10160;50.926;4.374;2023-04-09T03:43:39;8.30;99.90
19999;DHT22;10160;50.926;4.374;2023-04-09T03:46:15;8.40;99.90
19999;DHT22;10160;50.926;4.374;2023-04-09T03:48:41;8.20;99.90
19999;DHT22;10160;50.926;4.374;2023-04-09T03:51:11;8.10;99.90
19999;DHT22;10160;50.926;4.374;2023-04-09T03:53:37;8.20;99.90
19999;DHT22;10160;50.926;4.374;2023-04-09T03:56:03;8.30;99.90
19999;DHT22;10160;50.926;4.374;2023-04-09T03:58:29;8.30;99.90
19999;DHT22;10160;50.926;4.374;2023-04-09T04:00:54;8.40;99.90
19999;DHT22;10160;50.926;4.374;2023-04-09T04:03:20;8.40;99.90
19999;DHT22;10160;50.926;4.374;2023-04-09T04:05:46;8.30;99.90
19999;DHT22;10160;50.926;4.374;2023-04-09T04:08:11;8.30;99.90
19999;DHT22;10160;50.926;4.374;2023-04-09T04:10:37;8.10;99.90
19999;DHT22;10160;50.926;4.374;2023-04-09T04:13:02;8.20;99.90
19999;DHT22;10160;50.926;4.374;2023-04-09T04:15:30;8.20;99.90
19999;DHT22;10160;50.926;4.374;2023-04-09T04:17:56;8.20;99.90
19999;DHT22;10160;50.926;4.374;2023-04-09T04:20:22;8.20;99.90
19999;DHT22;10160;50.926;4.374;2023-04-09T04:22:47;8.40;99.90
19999;DHT22;10160;50.926;4.374;2023-04-09T04:25:13;8.50;99.90
19999;DHT22;10160;50.926;4.374;2023-04-09T04:27:42;8.50;99.90
19999;DHT22;10160;50.926;4.374;2023-04-09T04:30:08;8.50;99.90
19999;DHT22;10160;50.926;4.374;2023-04-09T04:32:33;8.40;99.90
19999;DHT22;10160;50.926;4.374;2023-04-09T04:34:59;8.30;99.90
19999;DHT22;10160;50.926;4.374;2023-04-09T04:37:25;7.90;99.90
19999;DHT22;10160;50.926;4.374;2023-04-09T04:39:50;8.10;99.90
19999;DHT22;10160;50.926;4.374;2023-04-09T04:42:16;8.10;99.90
19999;DHT22;10160;50.926;4.374;2023-04-09T04:44:43;8.00;99.90
19999;DHT22;10160;50.926;4.374;2023-04-09T04:47:08;8.00;99.90
19999;DHT22;10160;50.926;4.374;2023-04-09T04:49:34;8.10;99.90
19999;DHT22;10160;50.926;4.374;2023-04-09T04:52:00;8.20;99.90
19999;DHT22;10160;50.926;4.374;2023-04-09T04:54:25;8.20;99.90
19999;DHT22;10160;50.926;4.374;2023-04-09T04:56:51;8.30;99.90
19999;DHT22;10160;50.926;4.374;2023-04-09T04:59:17;8.40;99.90
19999;DHT22;10160;50.926;4.374;2023-04-09T05:01:42;8.30;99.90
19999;DHT22;10160;50.926;4.374;2023-04-09T05:04:08;8.40;99.90
19999;DHT22;10160;50.926;4.374;2023-04-09T05:06:34;8.40;99.90
19999;DHT22;10160;50.926;4.374;2023-04-09T05:08:59;8.40;99.90
19999;DHT22;10160;50.926;4.374;2023-04-09T05:11:26;8.40;99.90
19999;DHT22;10160;50.926;4.374;2023-04-09T05:13:52;8.30;99.90
19999;DHT22;10160;50.926;4.374;2023-04-09T05:16:19;8.30;99.90
19999;DHT22;10160;50.926;4.374;2023-04-09T05:18:45;8.10;99.90
19999;DHT22;10160;50.926;4.374;2023-04-09T05:21:11;8.00;99.90
19999;DHT22;10160;50.926;4.374;2023-04-09T05:23:37;8.00;99.90
19999;DHT22;10160;50.926;4.374;2023-04-09T05:26:02;7.90;99.90
19999;DHT22;10160;50.926;4.374;2023-04-09T05:28:28;8.00;99.90
19999;DHT22;10160;50.926;4.374;2023-04-09T05:30:54;7.90;99.90
19999;DHT22;10160;50.926;4.374;2023-04-09T05:33:19;7.50;99.90
19999;DHT22;10160;50.926;4.374;2023-04-09T05:35:45;7.60;99.90
19999;DHT22;10160;50.926;4.374;2023-04-09T05:38:11;7.80;99.90
19999;DHT22;10160;50.926;4.374;2023-04-09T05:40:38;8.00;99.90
19999;DHT22;10160;50.926;4.374;2023-04-09T05:43:04;8.30;99.90
19999;DHT22;10160;50.926;4.374;2023-04-09T05:45:30;8.30;99.90
19999;DHT22;10160;50.926;4.374;2023-04-09T05:47:56;8.50;99.90
19999;DHT22;10160;50.926;4.374;2023-04-09T05:50:22;8.70;99.90
19999;DHT22;10160;50.926;4.374;2023-04-09T05:52:47;8.70;99.90
19999;DHT22;10160;50.926;4.374;2023-04-09T05:55:13;8.50;99.90
19999;DHT22;10160;50.926;4.374;2023-04-09T05:57:39;8.60;99.90
19999;DHT22;10160;50.926;4.374;2023-04-09T06:00:05;8.50;99.90
19999;DHT22;10160;50.926;4.374;2023-04-09T06:02:32;8.40;99.90
19999;DHT22;10160;50.926;4.374;2023-04-09T06:04:58;8.40;99.90
19999;DHT22;10160;50.926;4.374;2023-04-09T06:07:24;8.70;99.90
19999;DHT22;10160;50.926;4.374;2023-04-09T06:09:49;8.80;99.90
19999;DHT22;10160;50.926;4.374;2023-04-09T06:12:15;9.10;99.90
19999;DHT22;10160;50.926;4.374;2023-04-09T06:14:41;8.80;99.90
19999;DHT22;10160;50.926;4.374;2023-04-09T06:17:07;8.70;99.90
19999;DHT22;10160;50.926;4.374;2023-04-09T06:19:33;8.90;99.90
19999;DHT22;10160;50.926;4.374;2023-04-09T06:21:58;8.80;99.90
19999;DHT22;10160;50.926;4.374;2023-04-09T06:24:24;9.00;99.90
19999;DHT22;10160;50.926;4.374;2023-04-09T06:26:50;9.30;99.90
19999;DHT22;10160;50.926;4.374;2023-04-09T06:29:16;9.50;99.90
19999;DHT22;10160;50.926;4.374;2023-04-09T06:31:42;9.50;99.90
19999;DHT22;10160;50.926;4.374;2023-04-09T06:34:07;9.30;99.90
19999;DHT22;10160;50.926;4.374;2023-04-09T06:36:33;9.20;99.90
19999;DHT22;10160;50.926;4.374;2023-04-09T06:38:59;9.30;99.90
19999;DHT22;10160;50.926;4.374;2023-04-09T06:41:25;9.00;99.90
19999;DHT22;10160;50.926;4.374;2023-04-09T06:43:53;9.00;99.90
19999;DHT22;10160;50.926;4.374;2023-04-09T06:46:19;9.20;99.90
19999;DHT22;10160;50.926;4.374;2023-04-09T06:48:46;9.60;99.90
19999;DHT22;10160;50.926;4.374;2023-04-09T06:51:11;9.80;99.90
19999;DHT22;10160;50.926;4.374;2023-04-09T06:53:38;9.90;99.90
19999;DHT22;10160;50.926;4.374;2023-04-09T06:56:04;9.80;99.90
19999;DHT22;10160;50.926;4.374;2023-04-09T06:58:29;10.00;99.90
19999;DHT22;10160;50.926;4.374;2023-04-09T07:00:55;10.10;99.90
19999;DHT22;10160;50.926;4.374;2023-04-09T07:03:21;10.20;99.90
19999;DHT22;10160;50.926;4.374;2023-04-09T07:05:47;10.70;99.90
19999;DHT22;10160;50.926;4.374;2023-04-09T07:08:13;10.70;99.90
19999;DHT22;10160;50.926;4.374;2023-04-09T07:10:39;10.40;99.90
19999;DHT22;10160;50.926;4.374;2023-04-09T07:13:05;10.20;99.90
19999;DHT22;10160;50.926;4.374;2023-04-09T07:15:31;10.10;99.90
19999;DHT22;10160;50.926;4.374;2023-04-09T07:17:56;10.40;99.90
19999;DHT22;10160;50.926;4.374;2023-04-09T07:20:22;10.70;99.90
19999;DHT22;10160;50.926;4.374;2023-04-09T07:22:48;10.70;99.90
19999;DHT22;10160;50.926;4.374;2023-04-09T07:25:14;10.70;99.90
19999;DHT22;10160;50.926;4.374;2023-04-09T07:27:40;11.00;99.90
19999;DHT22;10160;50.926;4.374;2023-04-09T07:30:08;11.20;99.90
19999;DHT22;10160;50.926;4.374;2023-04-09T07:32:35;11.40;99.90
19999;DHT22;10160;50.926;4.374;2023-04-09T07:35:03;11.10;99.90
19999;DHT22;10160;50.926;4.374;2023-04-09T07:37:29;11.20;99.90
19999;DHT22;10160;50.926;4.374;2023-04-09T07:39:55;11.00;99.90
19999;DHT22;10160;50.926;4.374;2023-04-09T07:42:21;10.90;99.90
19999;DHT22;10160;50.926;4.374;2023-04-09T07:44:47;11.00;99.90
19999;DHT22;10160;50.926;4.374;2023-04-09T07:47:13;10.90;99.90
19999;DHT22;10160;50.926;4.374;2023-04-09T07:49:39;11.30;99.90
19999;DHT22;10160;50.926;4.374;2023-04-09T07:52:05;11.20;99.90
19999;DHT22;10160;50.926;4.374;2023-04-09T07:54:33;11.30;99.90
19999;DHT22;10160;50.926;4.374;2023-04-09T07:56:59;11.60;99.90
19999;DHT22;10160;50.926;4.374;2023-04-09T07:59:26;11.70;99.90
19999;DHT22;10160;50.926;4.374;2023-04-09T08:01:52;11.60;99.90
19999;DHT22;10160;50.926;4.374;2023-04-09T08:04:18;11.50;99.90
19999;DHT22;10160;50.926;4.374;2023-04-09T08:06:44;11.60;99.90
19999;DHT22;10160;50.926;4.374;2023-04-09T08:09:22;11.40;99.90
19999;DHT22;10160;50.926;4.374;2023-04-09T08:11:48;11.70;99.90
19999;DHT22;10160;50.926;4.374;2023-04-09T08:14:14;12.20;99.90
19999;DHT22;10160;50.926;4.374;2023-04-09T08:16:42;12.40;99.90
19999;DHT22;10160;50.926;4.374;2023-04-09T08:19:09;12.50;99.90
19999;DHT22;10160;50.926;4.374;2023-04-09T08:21:41;12.30;99.90
19999;DHT22;10160;50.926;4.374;2023-04-09T08:24:11;12.40;99.90
19999;DHT22;10160;50.926;4.374;2023-04-09T08:26:40;12.50;99.90
19999;DHT22;10160;50.926;4.374;2023-04-09T08:29:07;12.50;99.90
19999;DHT22;10160;50.926;4.374;2023-04-09T08:31:34;12.60;99.90
19999;DHT22;10160;50.926;4.374;2023-04-09T08:34:02;12.90;99.90
19999;DHT22;10160;50.926;4.374;2023-04-09T08:36:27;12.90;99.90
19999;DHT22;10160;50.926;4.374;2023-04-09T08:38:53;12.90;99.90
19999;DHT22;10160;50.926;4.374;2023-04-09T08:41:22;12.90;99.90
19999;DHT22;10160;50.926;4.374;2023-04-09T08:43:54;13.00;99.90
19999;DHT22;10160;50.926;4.374;2023-04-09T08:46:19;13.40;99.90
19999;DHT22;10160;50.926;4.374;2023-04-09T08:48:46;13.80;99.90
19999;DHT22;10160;50.926;4.374;2023-04-09T08:51:13;13.60;99.90
19999;DHT22;10160;50.926;4.374;2023-04-09T08:53:46;13.70;99.90
19999;DHT22;10160;50.926;4.374;2023-04-09T08:56:16;14.20;99.90
19999;DHT22;10160;50.926;4.374;2023-04-09T08:58:45;14.50;99.90
19999;DHT22;10160;50.926;4.374;2023-04-09T09:01:37;14.40;99.90
19999;DHT22;10160;50.926;4.374;2023-04-09T09:04:05;14.60;99.90
19999;DHT22;10160;50.926;4.374;2023-04-09T09:06:35;14.90;99.90
19999;DHT22;10160;50.926;4.374;2023-04-09T09:09:19;14.80;99.90
19999;DHT22;10160;50.926;4.374;2023-04-09T09:11:47;14.90;99.90
19999;DHT22;10160;50.926;4.374;2023-04-09T09:14:16;14.90;99.90
19999;DHT22;10160;50.926;4.374;2023-04-09T09:16:43;14.90;99.90
19999;DHT22;10160;50.926;4.374;2023-04-09T09:19:29;15.40;99.90
19999;DHT22;10160;50.926;4.374;2023-04-09T09:21:56;15.20;99.90
19999;DHT22;10160;50.926;4.374;2023-04-09T09:24:22;15.10;99.90
19999;DHT22;10160;50.926;4.374;2023-04-09T09:26:48;15.30;99.90
19999;DHT22;10160;50.926;4.374;2023-04-09T09:29:13;15.80;99.90
19999;DHT22;10160;50.926;4.374;2023-04-09T09:31:47;16.40;99.90
19999;DHT22;10160;50.926;4.374;2023-04-09T09:34:14;16.50;99.90
19999;DHT22;10160;50.926;4.374;2023-04-09T09:36:40;16.00;99.90
19999;DHT22;10160;50.926;4.374;2023-04-09T09:39:06;16.10;99.90
19999;DHT22;10160;50.926;4.374;2023-04-09T09:41:36;16.40;99.90
19999;DHT22;10160;50.926;4.374;2023-04-09T09:44:02;16.40;99.90
19999;DHT22;10160;50.926;4.374;2023-04-09T09:46:34;16.50;99.90
19999;DHT22;10160;50.926;4.374;2023-04-09T09:49:00;16.70;99.90
19999;DHT22;10160;50.926;4.374;2023-04-09T09:51:26;16.60;99.90
19999;DHT22;10160;50.926;4.374;2023-04-09T09:53:56;17.10;99.90
19999;DHT22;10160;50.926;4.374;2023-04-09T09:56:44;16.60;99.90
19999;DHT22;10160;50.926;4.374;2023-04-09T09:59:16;16.90;99.90
19999;DHT22;10160;50.926;4.374;2023-04-09T10:01:45;17.40;99.90
19999;DHT22;10160;50.926;4.374;2023-04-09T10:04:13;17.20;99.90
19999;DHT22;10160;50.926;4.374;2023-04-09T10:06:42;17.00;99.90
19999;DHT22;10160;50.926;4.374;2023-04-09T10:09:09;16.50;99.90
19999;DHT22;10160;50.926;4.374;2023-04-09T10:11:36;17.40;99.90
19999;DHT22;10160;50.926;4.374;2023-04-09T10:14:03;17.50;99.90
19999;DHT22;10160;50.926;4.374;2023-04-09T10:16:30;18.10;99.90
19999;DHT22;10160;50.926;4.374;2023-04-09T10:18:57;18.70;99.90
19999;DHT22;10160;50.926;4.374;2023-04-09T10:24:13;19.50;99.90
19999;DHT22;10160;50.926;4.374;2023-04-09T10:26:41;20.00;99.90
19999;DHT22;10160;50.926;4.374;2023-04-09T10:29:10;20.40;99.90
19999;DHT22;10160;50.926;4.374;2023-04-09T10:31:53;21.00;99.90
19999;DHT22;10160;50.926;4.374;2023-04-09T10:34:23;21.30;99.90
19999;DHT22;10160;50.926;4.374;2023-04-09T10:37:00;21.40;99.90
19999;DHT22;10160;50.926;4.374;2023-04-09T10:39:30;20.80;99.90
19999;DHT22;10160;50.926;4.374;2023-04-09T10:41:58;20.80;99.90
19999;DHT22;10160;50.926;4.374;2023-04-09T10:44:27;20.90;99.90
19999;DHT22;10160;50.926;4.374;2023-04-09T10:46:56;21.00;99.90
19999;DHT22;10160;50.926;4.374;2023-04-09T10:49:24;21.10;99.90
19999;DHT22;10160;50.926;4.374;2023-04-09T10:52:01;20.70;99.90
19999;DHT22;10160;50.926;4.374;2023-04-09T10:57:21;20.80;99.90
19999;DHT22;10160;50.926;4.374;2023-04-09T10:59:48;20.60;99.90
19999;DHT22;10160;50.926;4.374;2023-04-09T11:02:30;20.80;99.90
19999;DHT22;10160;50.926;4.374;2023-04-09T11:07:41;21.70;99.90
19999;DHT22;10160;50.926;4.374;2023-04-09T11:10:08;21.70;99.90
19999;DHT22;10160;50.926;4.374;2023-04-09T11:12:34;22.10;99.90
19999;DHT22;10160;50.926;4.374;2023-04-09T11:14:59;22.00;99.90
19999;DHT22;10160;50.926;4.374;2023-04-09T11:17:25;21.40;99.90
19999;DHT22;10160;50.926;4.374;2023-04-09T11:19:51;21.70;99.90
19999;DHT22;10160;50.926;4.374;2023-04-09T11:22:17;20.90;99.90
19999;DHT22;10160;50.926;4.374;2023-04-09T11:24:44;21.50;99.90
19999;DHT22;10160;50.926;4.374;2023-04-09T11:27:13;20.90;99.90
19999;DHT22;10160;50.926;4.374;2023-04-09T11:29:39;20.50;99.90
19999;DHT22;10160;50.926;4.374;2023-04-09T11:32:07;19.70;99.90
19999;DHT22;10160;50.926;4.374;2023-04-09T11:34:32;19.20;99.90
19999;DHT22;10160;50.926;4.374;2023-04-09T11:36:58;19.30;99.90
19999;DHT22;10160;50.926;4.374;2023-04-09T11:39:29;19.70;99.90
19999;DHT22;10160;50.926;4.374;2023-04-09T11:41:55;20.10;99.90
19999;DHT22;10160;50.926;4.374;2023-04-09T11:44:22;20.00;99.90
19999;DHT22;10160;50.926;4.374;2023-04-09T11:46:48;19.30;99.90
19999;DHT22;10160;50.926;4.374;2023-04-09T11:49:15;18.40;99.90
19999;DHT22;10160;50.926;4.374;2023-04-09T11:51:41;18.70;99.90
19999;DHT22;10160;50.926;4.374;2023-04-09T11:54:07;19.10;99.90
19999;DHT22;10160;50.926;4.374;2023-04-09T11:56:34;19.00;99.90
19999;DHT22;10160;50.926;4.374;2023-04-09T11:59:01;18.90;99.90
19999;DHT22;10160;50.926;4.374;2023-04-09T12:01:33;19.20;99.90
19999;DHT22;10160;50.926;4.374;2023-04-09T12:03:59;18.60;99.90
19999;DHT22;10160;50.926;4.374;2023-04-09T12:06:26;19.10;99.90
19999;DHT22;10160;50.926;4.374;2023-04-09T12:08:53;20.00;99.90
19999;DHT22;10160;50.926;4.374;2023-04-09T12:11:18;20.70;99.90
19999;DHT22;10160;50.926;4.374;2023-04-09T12:13:45;21.50;99.90
19999;DHT22;10160;50.926;4.374;2023-04-09T12:16:11;22.10;99.90
19999;DHT22;10160;50.926;4.374;2023-04-09T12:18:38;22.40;99.90
19999;DHT22;10160;50.926;4.374;2023-04-09T12:21:04;22.40;99.90
19999;DHT22;10160;50.926;4.374;2023-04-09T12:23:30;22.60;99.90
19999;DHT22;10160;50.926;4.374;2023-04-09T12:25:56;22.30;99.90
19999;DHT22;10160;50.926;4.374;2023-04-09T12:28:25;22.70;99.90
19999;DHT22;10160;50.926;4.374;2023-04-09T12:30:52;22.90;99.90
19999;DHT22;10160;50.926;4.374;2023-04-09T12:33:21;22.90;99.90
19999;DHT22;10160;50.926;4.374;2023-04-09T12:35:47;22.60;99.90
19999;DHT22;10160;50.926;4.374;2023-04-09T12:38:12;22.30;99.90
19999;DHT22;10160;50.926;4.374;2023-04-09T12:40:38;21.90;99.90
19999;DHT22;10160;50.926;4.374;2023-04-09T12:43:04;21.40;99.90
19999;DHT22;10160;50.926;4.374;2023-04-09T12:45:30;21.50;99.90
19999;DHT22;10160;50.926;4.374;2023-04-09T12:47:57;21.50;99.90
19999;DHT22;10160;50.926;4.374;2023-04-09T12:50:23;21.60;99.90
19999;DHT22;10160;50.926;4.374;2023-04-09T12:52:48;21.30;99.90
19999;DHT22;10160;50.926;4.374;2023-04-09T12:55:15;20.50;99.90
19999;DHT22;10160;50.926;4.374;2023-04-09T12:57:42;20.20;99.90
19999;DHT22;10160;50.926;4.374;2023-04-09T13:00:09;20.20;99.90
19999;DHT22;10160;50.926;4.374;2023-04-09T13:02:35;20.50;99.90
19999;DHT22;10160;50.926;4.374;2023-04-09T13:05:01;20.80;99.90
19999;DHT22;10160;50.926;4.374;2023-04-09T13:07:27;20.70;99.90
19999;DHT22;10160;50.926;4.374;2023-04-09T13:09:54;20.80;99.90
19999;DHT22;10160;50.926;4.374;2023-04-09T13:12:20;20.40;99.90
19999;DHT22;10160;50.926;4.374;2023-04-09T13:14:46;20.40;99.90
19999;DHT22;10160;50.926;4.374;2023-04-09T13:17:13;20.30;99.90
19999;DHT22;10160;50.926;4.374;2023-04-09T13:19:39;19.90;99.90
19999;DHT22;10160;50.926;4.374;2023-04-09T13:22:05;20.10;99.90
19999;DHT22;10160;50.926;4.374;2023-04-09T13:24:34;20.00;99.90
19999;DHT22;10160;50.926;4.374;2023-04-09T13:27:00;19.90;99.90
19999;DHT22;10160;50.926;4.374;2023-04-09T13:29:26;19.80;99.90
19999;DHT22;10160;50.926;4.374;2023-04-09T13:31:57;19.70;99.90
19999;DHT22;10160;50.926;4.374;2023-04-09T13:34:23;20.20;99.90
19999;DHT22;10160;50.926;4.374;2023-04-09T13:36:49;20.40;99.90
19999;DHT22;10160;50.926;4.374;2023-04-09T13:39:15;20.80;99.90
19999;DHT22;10160;50.926;4.374;2023-04-09T13:41:41;20.80;99.90
19999;DHT22;10160;50.926;4.374;2023-04-09T13:44:06;20.50;99.90
19999;DHT22;10160;50.926;4.374;2023-04-09T13:46:32;20.50;99.90
19999;DHT22;10160;50.926;4.374;2023-04-09T13:48:58;20.40;99.90
19999;DHT22;10160;50.926;4.374;2023-04-09T13:51:26;20.70;99.90
19999;DHT22;10160;50.926;4.374;2023-04-09T13:53:52;20.40;99.90
19999;DHT22;10160;50.926;4.374;2023-04-09T13:56:18;20.00;99.90
19999;DHT22;10160;50.926;4.374;2023-04-09T13:58:44;20.10;99.90
19999;DHT22;10160;50.926;4.374;2023-04-09T14:01:11;20.20;99.90
19999;DHT22;10160;50.926;4.374;2023-04-09T14:03:37;20.10;99.90
19999;DHT22;10160;50.926;4.374;2023-04-09T14:06:05;20.10;99.90
19999;DHT22;10160;50.926;4.374;2023-04-09T14:08:31;19.80;99.90
19999;DHT22;10160;50.926;4.374;2023-04-09T14:10:57;18.90;99.90
19999;DHT22;10160;50.926;4.374;2023-04-09T14:13:23;18.40;99.90
19999;DHT22;10160;50.926;4.374;2023-04-09T14:15:48;18.60;99.90
19999;DHT22;10160;50.926;4.374;2023-04-09T14:18:14;18.70;99.90
19999;DHT22;10160;50.926;4.374;2023-04-09T14:20:40;18.60;99.90
19999;DHT22;10160;50.926;4.374;2023-04-09T14:23:06;18.30;99.90
19999;DHT22;10160;50.926;4.374;2023-04-09T14:25:31;18.60;99.90
19999;DHT22;10160;50.926;4.374;2023-04-09T14:27:57;18.80;99.90
19999;DHT22;10160;50.926;4.374;2023-04-09T14:30:23;19.10;99.90
19999;DHT22;10160;50.926;4.374;2023-04-09T14:32:52;19.40;99.90
19999;DHT22;10160;50.926;4.374;2023-04-09T14:35:17;19.50;99.90
19999;DHT22;10160;50.926;4.374;2023-04-09T14:37:43;19.20;99.90
19999;DHT22;10160;50.926;4.374;2023-04-09T14:40:09;19.20;99.90
19999;DHT22;10160;50.926;4.374;2023-04-09T14:42:35;19.10;99.90
19999;DHT22;10160;50.926;4.374;2023-04-09T14:45:06;19.40;99.90
19999;DHT22;10160;50.926;4.374;2023-04-09T14:47:33;19.30;99.90
19999;DHT22;10160;50.926;4.374;2023-04-09T14:49:59;18.90;99.90
19999;DHT22;10160;50.926;4.374;2023-04-09T14:52:24;18.90;99.90
19999;DHT22;10160;50.926;4.374;2023-04-09T14:54:50;19.00;99.90
19999;DHT22;10160;50.926;4.374;2023-04-09T14:57:18;19.60;99.90
19999;DHT22;10160;50.926;4.374;2023-04-09T14:59:44;19.80;99.90
19999;DHT22;10160;50.926;4.374;2023-04-09T15:02:09;19.70;99.90
19999;DHT22;10160;50.926;4.374;2023-04-09T15:04:36;19.50;99.90
19999;DHT22;10160;50.926;4.374;2023-04-09T15:07:01;19.80;99.90
19999;DHT22;10160;50.926;4.374;2023-04-09T15:09:27;19.30;99.90
19999;DHT22;10160;50.926;4.374;2023-04-09T15:11:53;18.60;99.90
19999;DHT22;10160;50.926;4.374;2023-04-09T15:14:19;18.30;99.90
19999;DHT22;10160;50.926;4.374;2023-04-09T15:16:45;18.90;99.90
19999;DHT22;10160;50.926;4.374;2023-04-09T15:19:11;19.10;99.90
19999;DHT22;10160;50.926;4.374;2023-04-09T15:21:37;18.60;99.90
19999;DHT22;10160;50.926;4.374;2023-04-09T15:24:02;18.60;99.90
19999;DHT22;10160;50.926;4.374;2023-04-09T15:26:28;18.90;99.90
19999;DHT22;10160;50.926;4.374;2023-04-09T15:29:01;18.70;99.90
19999;DHT22;10160;50.926;4.374;2023-04-09T15:31:31;18.60;99.90
19999;DHT22;10160;50.926;4.374;2023-04-09T15:33:57;18.60;99.90
19999;DHT22;10160;50.926;4.374;2023-04-09T15:36:22;18.60;99.90
19999;DHT22;10160;50.926;4.374;2023-04-09T15:38:48;18.60;99.90
19999;DHT22;10160;50.926;4.374;2023-04-09T15:41:13;18.50;99.90
19999;DHT22;10160;50.926;4.374;2023-04-09T15:43:41;18.40;99.90
19999;DHT22;10160;50.926;4.374;2023-04-09T15:46:08;18.40;99.90
19999;DHT22;10160;50.926;4.374;2023-04-09T15:48:34;18.30;99.90
19999;DHT22;10160;50.926;4.374;2023-04-09T15:51:00;18.40;99.90
19999;DHT22;10160;50.926;4.374;2023-04-09T15:53:25;18.20;99.90